Time;durP1;ratioP1;P1;durP2;ratioP2;P2;SDS_P1;SDS_P2;PMS_P1;PMS_P2;Temp;Humidity;BMP_temperature;BMP_pressure;BME280_temperature;BME280_humidity;BME280_pressure;Samples;Min_cycle;Max_cycle;Signal;HPM_P1;HPM_P2
2023/05/08 00:00:40;;;;;;;4.10;2.50;;;;;;;8.68;42.40;100337.27;107278;1256;61515;-37
2023/05/08 00:03:08;;;;;;;4.50;2.80;;;;;;;8.66;42.34;100338.04;107303;1256;74285;-37
2023/05/08 00:05:36;;;;;;;6.30;2.50;;;;;;;8.65;42.85;100340.73;107338;1256;66799;-38
2023/05/08 00:08:04;;;;;;;5.50;2.50;;;;;;;8.63;42.57;100342.73;107286;1256;73638;-38
2023/05/08 00:10:31;;;;;;;3.20;2.10;;;;;;;8.61;42.74;100346.71;107269;1256;59977;-38
2023/05/08 00:12:59;;;;;;;4.90;2.50;;;;;;;8.60;43.03;100345.61;107251;1256;61518;-37
2023/05/08 00:15:26;;;;;;;3.50;2.50;;;;;;;8.60;42.75;100346.21;107245;1256;74081;-38
2023/05/08 00:17:54;;;;;;;4.50;2.40;;;;;;;8.60;42.60;100344.77;107278;1256;69156;-37
2023/05/08 00:20:22;;;;;;;4.70;2.10;;;;;;;8.60;42.97;100345.38;107292;1256;73701;-38
2023/05/08 00:22:49;;;;;;;3.50;2.40;;;;;;;8.61;43.10;100340.92;107297;1256;59723;-37
2023/05/08 00:25:16;;;;;;;5.30;2.40;;;;;;;8.60;42.60;100335.42;107269;1257;61260;-38
2023/05/08 00:27:43;;;;;;;4.30;2.40;;;;;;;8.60;42.57;100333.10;107310;1256;74273;-37
2023/05/08 00:30:11;;;;;;;2.90;2.20;;;;;;;8.61;42.70;100333.96;107284;1256;69067;-37
2023/05/08 00:32:38;;;;;;;4.00;2.30;;;;;;;8.60;42.42;100331.31;107280;1256;72573;-37
2023/05/08 00:35:06;;;;;;;5.70;2.20;;;;;;;8.59;42.04;100332.82;107218;1256;60524;-37
2023/05/08 00:37:33;;;;;;;4.80;2.20;;;;;;;8.58;42.42;100336.77;107220;1256;61331;-37
2023/05/08 00:40:00;;;;;;;5.00;2.50;;;;;;;8.57;42.51;100338.60;107187;1256;74592;-37
2023/05/08 00:42:27;;;;;;;7.80;2.80;;;;;;;8.58;42.99;100343.98;107227;1257;68888;-38
2023/05/08 00:44:54;;;;;;;4.90;2.90;;;;;;;8.58;42.57;100345.44;107412;1255;73753;-37
2023/05/08 00:47:22;;;;;;;4.00;2.30;;;;;;;8.58;42.78;100347.73;107370;1257;60639;-39
2023/05/08 00:49:49;;;;;;;4.00;2.50;;;;;;;8.57;42.94;100348.56;107236;1257;59710;-38
2023/05/08 00:52:16;;;;;;;8.30;2.70;;;;;;;8.56;42.59;100350.29;107427;1259;73497;-38
2023/05/08 00:54:43;;;;;;;4.10;2.80;;;;;;;8.49;42.49;100344.57;107450;1257;68841;-37
2023/05/08 00:57:11;;;;;;;6.10;2.30;;;;;;;8.54;42.40;100354.84;107374;1260;72482;-37
2023/05/08 00:59:40;;;;;;;5.40;2.90;;;;;;;8.55;42.70;100356.33;107466;1257;60742;-38
2023/05/08 01:02:07;;;;;;;5.40;2.80;;;;;;;8.53;42.22;100363.45;107267;1257;60456;-37
2023/05/08 01:04:34;;;;;;;3.90;2.70;;;;;;;8.51;42.32;100361.37;107269;1256;75106;-37
2023/05/08 01:07:02;;;;;;;4.60;2.50;;;;;;;8.50;42.49;100366.77;107231;1256;69551;-37
2023/05/08 01:09:29;;;;;;;4.20;2.50;;;;;;;8.47;43.10;100369.43;107402;1257;72392;-38
2023/05/08 01:12:03;;;;;;;5.30;2.30;;;;;;;8.46;43.43;100367.64;107406;1256;60733;-38
2023/05/08 01:14:33;;;;;;;10.70;3.10;;;;;;;8.45;43.31;100365.88;107469;1258;60271;-37
2023/05/08 01:17:11;;;;;;;5.10;2.50;;;;;;;8.43;43.01;100367.42;107321;1260;74938;-37
2023/05/08 01:19:37;;;;;;;4.80;2.60;;;;;;;8.40;42.91;100372.27;107454;1257;69220;-37
2023/05/08 01:22:17;;;;;;;3.70;2.90;;;;;;;8.38;43.10;100377.15;107349;1257;73908;-37
2023/05/08 01:24:47;;;;;;;4.50;2.60;;;;;;;8.38;43.06;100379.68;107311;1257;60471;-37
2023/05/08 01:27:29;;;;;;;4.10;2.70;;;;;;;8.35;43.01;100379.02;107332;1257;61325;-37
2023/05/08 01:30:26;;;;;;;4.20;2.60;;;;;;;8.33;43.09;100378.84;107299;1257;75066;-36
2023/05/08 01:33:01;;;;;;;5.20;3.00;;;;;;;8.28;43.36;100378.48;107445;1257;67601;-37
2023/05/08 01:35:35;;;;;;;4.80;2.90;;;;;;;8.26;43.67;100381.80;107358;1258;73941;-37
2023/05/08 01:38:22;;;;;;;3.70;2.50;;;;;;;8.26;43.81;100383.17;105908;1257;1014811;-37
2023/05/08 01:40:53;;;;;;;7.10;2.70;;;;;;;8.25;43.29;100382.71;107340;1258;60441;-37
2023/05/08 01:43:48;;;;;;;3.50;2.40;;;;;;;8.21;43.36;100384.35;107482;1256;75137;-37
2023/05/08 01:46:25;;;;;;;5.20;2.50;;;;;;;8.19;43.30;100384.46;107355;1258;68849;-37
2023/05/08 01:48:59;;;;;;;7.20;2.70;;;;;;;8.15;43.49;100386.79;107450;1254;71793;-37
2023/05/08 01:51:27;;;;;;;4.60;2.80;;;;;;;8.15;43.62;100386.53;107329;1254;60786;-37
2023/05/08 01:53:56;;;;;;;5.00;2.90;;;;;;;8.14;43.62;100384.18;107344;1256;60886;-37
2023/05/08 01:56:23;;;;;;;4.30;2.70;;;;;;;8.15;43.59;100388.44;105992;1254;1003810;-37
2023/05/08 01:58:51;;;;;;;6.80;3.10;;;;;;;8.15;43.51;100392.41;107282;1257;67694;-36
2023/05/08 02:01:21;;;;;;;3.60;2.60;;;;;;;8.15;43.75;100390.80;107239;1257;73656;-37
2023/05/08 02:03:48;;;;;;;5.20;2.40;;;;;;;8.14;43.55;100388.63;107327;1255;60590;-37
2023/05/08 02:06:17;;;;;;;5.30;2.70;;;;;;;8.12;43.33;100395.34;107517;1259;60064;-38
2023/05/08 02:08:45;;;;;;;3.80;2.20;;;;;;;8.10;43.27;100395.40;107468;1258;73643;-37
2023/05/08 02:11:13;;;;;;;4.30;2.60;;;;;;;8.08;43.35;100402.86;107524;1259;69105;-37
2023/05/08 02:13:40;;;;;;;6.00;3.00;;;;;;;8.06;43.74;100405.73;107320;1260;73881;-38
2023/05/08 02:16:08;;;;;;;3.50;2.30;;;;;;;8.04;43.19;100411.13;107298;1255;60617;-37
2023/05/08 02:18:35;;;;;;;5.80;2.70;;;;;;;8.04;43.46;100415.89;107512;1258;60616;-38
2023/05/08 02:21:03;;;;;;;5.40;2.50;;;;;;;8.04;43.73;100419.51;107350;1256;74938;-37
2023/05/08 02:23:30;;;;;;;5.50;2.50;;;;;;;8.05;43.63;100422.77;107457;1258;67870;-37
2023/05/08 02:25:57;;;;;;;6.20;2.70;;;;;;;8.03;43.18;100427.90;107337;1256;73905;-37
2023/05/08 02:28:25;;;;;;;3.60;2.70;;;;;;;8.04;43.52;100430.91;107268;1257;60424;-38
2023/05/08 02:30:52;;;;;;;3.30;2.60;;;;;;;8.03;43.71;100430.79;107128;1256;61546;-38
2023/05/08 02:33:19;;;;;;;4.50;2.80;;;;;;;7.98;43.52;100430.18;107343;1254;74905;-38
2023/05/08 02:35:46;;;;;;;6.10;2.80;;;;;;;8.02;43.97;100435.09;107280;1257;67749;-38
2023/05/08 02:38:13;;;;;;;3.40;2.60;;;;;;;8.03;43.70;100436.29;107326;1254;73832;-38
2023/05/08 02:40:45;;;;;;;4.30;2.90;;;;;;;8.02;43.36;100440.51;107244;1258;60760;-38
2023/05/08 02:43:12;;;;;;;5.30;2.70;;;;;;;8.02;43.74;100443.44;107494;1258;60312;-37
2023/05/08 02:45:51;;;;;;;6.10;2.80;;;;;;;8.02;43.47;100445.02;107470;1257;75001;-38
2023/05/08 02:48:24;;;;;;;5.20;2.30;;;;;;;8.01;43.60;100447.02;107364;1256;68975;-37
2023/05/08 02:50:58;;;;;;;5.20;2.50;;;;;;;8.01;43.52;100452.55;107342;1258;72711;-37
2023/05/08 02:53:46;;;;;;;9.50;3.20;;;;;;;7.99;43.30;100455.46;107219;1260;60794;-38
2023/05/08 02:56:40;;;;;;;4.90;2.50;;;;;;;8.00;43.64;100456.41;107294;1255;61196;-37
2023/05/08 02:59:19;;;;;;;5.70;2.70;;;;;;;8.00;43.42;100457.12;107395;1257;74851;-37
2023/05/08 03:02:00;;;;;;;3.30;2.50;;;;;;;8.01;43.63;100459.48;107302;1260;68999;-38
2023/05/08 03:04:31;;;;;;;7.70;2.60;;;;;;;8.03;43.64;100459.95;107442;1255;72644;-37
2023/05/08 03:06:58;;;;;;;4.70;2.50;;;;;;;8.05;43.65;100460.22;107481;1260;60396;-37
2023/05/08 03:09:29;;;;;;;4.30;2.70;;;;;;;8.07;44.06;100459.86;106603;1258;1002898;-37
2023/05/08 03:12:05;;;;;;;7.30;2.60;;;;;;;8.08;43.72;100462.77;107480;1258;75150;-37
2023/05/08 03:14:36;;;;;;;4.80;2.50;;;;;;;8.08;43.66;100465.62;107358;1257;69219;-37
2023/05/08 03:17:05;;;;;;;7.20;2.80;;;;;;;8.08;43.73;100469.30;107316;1257;73962;-37
2023/05/08 03:19:36;;;;;;;4.80;2.80;;;;;;;8.09;44.40;100469.27;107495;1254;60831;-38
2023/05/08 03:22:05;;;;;;;4.60;2.50;;;;;;;8.11;44.05;100471.38;107398;1258;62010;-37
2023/05/08 03:24:35;;;;;;;5.60;2.80;;;;;;;8.12;44.03;100477.00;107250;1260;75186;-37
2023/05/08 03:27:03;;;;;;;3.20;2.40;;;;;;;8.13;44.02;100476.48;105965;1257;1003816;-37
2023/05/08 03:29:32;;;;;;;5.50;2.90;;;;;;;8.12;44.15;100478.30;107452;1257;72628;-37
2023/05/08 03:31:59;;;;;;;3.60;2.70;;;;;;;8.12;44.31;100479.67;107503;1260;60763;-38
2023/05/08 03:34:27;;;;;;;5.70;2.80;;;;;;;8.10;44.64;100478.14;107357;1258;60482;-37
2023/05/08 03:36:55;;;;;;;4.50;2.60;;;;;;;8.10;44.62;100483.83;107320;1257;74778;-37
2023/05/08 03:39:23;;;;;;;3.60;2.40;;;;;;;8.10;44.71;100480.14;107249;1258;67833;-37
2023/05/08 03:41:50;;;;;;;4.80;2.90;;;;;;;8.11;45.12;100487.61;107313;1257;71729;-38
2023/05/08 03:44:18;;;;;;;6.40;2.80;;;;;;;8.13;45.10;100483.67;107473;1259;60443;-37
2023/05/08 03:46:45;;;;;;;4.10;2.70;;;;;;;8.14;45.15;100484.45;107472;1259;61396;-37
2023/05/08 03:49:12;;;;;;;6.20;3.10;;;;;;;8.15;44.86;100482.79;107320;1256;74781;-36
2023/05/08 03:51:39;;;;;;;6.20;2.80;;;;;;;8.16;44.62;100488.29;107259;1257;69086;-37
2023/05/08 03:54:07;;;;;;;4.30;3.30;;;;;;;8.16;44.64;100494.17;107321;1255;73688;-37
2023/05/08 03:56:34;;;;;;;11.60;3.40;;;;;;;8.16;44.39;100488.36;107480;1256;60532;-36
2023/05/08 03:59:06;;;;;;;6.40;3.10;;;;;;;8.16;44.84;100491.63;107330;1257;60315;-37
2023/05/08 04:01:40;;;;;;;5.90;2.80;;;;;;;8.17;44.58;100497.06;107467;1260;74844;-36
2023/05/08 04:04:11;;;;;;;6.30;3.20;;;;;;;8.16;44.30;100498.77;107354;1260;67972;-37
2023/05/08 04:06:53;;;;;;;5.10;3.00;;;;;;;8.15;44.76;100505.44;107508;1257;73494;-37
2023/05/08 04:09:38;;;;;;;4.80;2.80;;;;;;;8.16;44.22;100508.98;107470;1260;60657;-37
2023/05/08 04:12:20;;;;;;;4.10;2.70;;;;;;;8.17;44.48;100508.46;107489;1257;60177;-37
2023/05/08 04:14:51;;;;;;;5.70;2.80;;;;;;;8.17;44.06;100510.02;107307;1257;75053;-37
2023/05/08 04:17:35;;;;;;;3.80;2.80;;;;;;;8.16;43.97;100511.77;107463;1260;68216;-37
2023/05/08 04:20:03;;;;;;;7.00;3.00;;;;;;;8.17;44.57;100510.88;107361;1260;72316;-37
2023/05/08 04:22:32;;;;;;;3.60;2.40;;;;;;;8.19;44.28;100515.05;107312;1259;60468;-36
2023/05/08 04:25:02;;;;;;;4.40;3.20;;;;;;;8.22;44.40;100512.10;107308;1260;61760;-37
2023/05/08 04:27:29;;;;;;;3.90;2.90;;;;;;;8.25;44.50;100516.87;107309;1258;74678;-37
2023/05/08 04:29:56;;;;;;;4.00;2.90;;;;;;;8.28;44.77;100517.59;107321;1258;67645;-37
2023/05/08 04:32:23;;;;;;;5.10;2.60;;;;;;;8.31;44.95;100521.13;107293;1257;73797;-37
2023/05/08 04:34:51;;;;;;;7.80;3.00;;;;;;;8.35;45.09;100516.98;107441;1260;60831;-37
2023/05/08 04:37:26;;;;;;;4.70;3.00;;;;;;;8.38;45.22;100521.27;107306;1257;60034;-37
2023/05/08 04:39:53;;;;;;;3.80;3.00;;;;;;;8.42;45.11;100523.70;107344;1257;74859;-37
2023/05/08 04:42:20;;;;;;;5.40;2.80;;;;;;;8.44;45.22;100515.91;107494;1260;68066;-37
2023/05/08 04:44:48;;;;;;;6.70;2.90;;;;;;;8.49;45.33;100521.58;107284;1258;73900;-37
2023/05/08 04:47:15;;;;;;;3.70;2.40;;;;;;;8.53;45.24;100519.56;107415;1257;60897;-37
2023/05/08 04:49:42;;;;;;;3.80;2.80;;;;;;;8.58;45.34;100520.98;107478;1256;61404;-37
2023/05/08 04:52:09;;;;;;;3.70;2.70;;;;;;;8.65;45.61;100524.22;107324;1255;75064;-36
2023/05/08 04:54:37;;;;;;;8.50;2.70;;;;;;;8.71;45.63;100523.96;107319;1257;68830;-36
2023/05/08 04:57:06;;;;;;;5.50;3.40;;;;;;;8.75;45.07;100528.92;107362;1255;71945;-36
2023/05/08 04:59:33;;;;;;;4.60;2.80;;;;;;;8.79;45.25;100531.11;107280;1260;60341;-36
2023/05/08 05:02:01;;;;;;;3.60;2.60;;;;;;;8.85;45.60;100534.77;107516;1254;61457;-37
2023/05/08 05:04:29;;;;;;;3.80;3.10;;;;;;;8.92;45.80;100535.31;107311;1260;74849;-37
2023/05/08 05:06:56;;;;;;;4.20;2.90;;;;;;;9.00;45.65;100537.91;107364;1258;69191;-37
2023/05/08 05:09:24;;;;;;;6.40;2.80;;;;;;;9.06;45.18;100540.20;107283;1260;74004;-37
2023/05/08 05:11:51;;;;;;;3.90;2.50;;;;;;;9.12;45.35;100537.97;107348;1260;60717;-37
2023/05/08 05:14:18;;;;;;;4.50;2.70;;;;;;;9.17;45.44;100537.87;107485;1259;60441;-36
2023/05/08 05:16:46;;;;;;;7.10;2.80;;;;;;;9.22;45.69;100540.88;107454;1257;74699;-37
2023/05/08 05:19:13;;;;;;;5.30;2.80;;;;;;;9.29;45.19;100542.61;107306;1258;69555;-37
2023/05/08 05:21:40;;;;;;;6.70;2.60;;;;;;;9.34;45.08;100542.92;107415;1260;73531;-37
2023/05/08 05:24:07;;;;;;;6.90;3.10;;;;;;;9.38;44.80;100541.86;107329;1260;60567;-37
2023/05/08 05:26:36;;;;;;;4.40;2.60;;;;;;;9.44;44.75;100544.13;107473;1255;61315;-37
2023/05/08 05:29:04;;;;;;;3.80;2.60;;;;;;;9.51;44.57;100538.54;107488;1259;73702;-37
2023/05/08 05:31:31;;;;;;;6.50;2.80;;;;;;;9.55;44.75;100537.00;107450;1260;69134;-37
2023/05/08 05:33:58;;;;;;;4.90;2.80;;;;;;;9.56;44.69;100539.00;107322;1260;73872;-37
2023/05/08 05:36:26;;;;;;;8.40;2.80;;;;;;;9.61;44.61;100537.11;107455;1255;60529;-37
2023/05/08 05:38:53;;;;;;;5.40;2.80;;;;;;;9.65;44.30;100539.42;107335;1256;61105;-37
2023/05/08 05:41:21;;;;;;;7.00;3.00;;;;;;;9.70;44.19;100541.98;107468;1259;74004;-37
2023/05/08 05:43:48;;;;;;;8.10;3.40;;;;;;;9.75;43.77;100543.55;107492;1257;69408;-38
2023/05/08 05:46:15;;;;;;;5.80;3.10;;;;;;;9.76;43.20;100542.63;107341;1258;73569;-38
2023/05/08 05:48:42;;;;;;;5.40;3.40;;;;;;;9.77;43.09;100546.20;107225;1261;61530;-38
2023/05/08 05:51:10;;;;;;;6.20;3.10;;;;;;;9.78;43.28;100543.77;107281;1257;61408;-38
2023/05/08 05:53:38;;;;;;;7.20;3.10;;;;;;;9.82;43.55;100545.46;107283;1261;73524;-37
2023/05/08 05:56:05;;;;;;;5.20;3.10;;;;;;;9.85;42.69;100544.45;107260;1260;69066;-37
2023/05/08 05:58:33;;;;;;;6.40;3.10;;;;;;;9.89;42.95;100544.46;107086;1258;73798;-38
2023/05/08 06:01:00;;;;;;;5.70;3.10;;;;;;;9.94;43.13;100543.63;107296;1261;61387;-38
2023/05/08 06:03:29;;;;;;;5.60;3.20;;;;;;;10.00;43.26;100542.48;107202;1257;61263;-38
2023/05/08 06:05:57;;;;;;;4.70;3.10;;;;;;;10.07;43.11;100542.35;107227;1257;74787;-38
2023/05/08 06:08:26;;;;;;;4.70;3.10;;;;;;;10.11;42.96;100542.61;107141;1262;68919;-37
2023/05/08 06:10:55;;;;;;;8.10;3.80;;;;;;;10.15;42.42;100538.27;107232;1258;72997;-38
2023/05/08 06:13:23;;;;;;;4.00;2.90;;;;;;;10.15;42.23;100542.34;107225;1261;61115;-38
2023/05/08 06:15:55;;;;;;;7.50;3.10;;;;;;;10.17;42.19;100538.52;107314;1257;60536;-37
2023/05/08 06:18:22;;;;;;;5.40;3.20;;;;;;;10.21;41.91;100537.84;107241;1257;75151;-38
2023/05/08 06:20:55;;;;;;;6.50;3.30;;;;;;;10.25;42.19;100539.23;107091;1258;68016;-38
2023/05/08 06:23:22;;;;;;;8.40;3.50;;;;;;;10.28;41.80;100538.98;107083;1257;74003;-37
2023/05/08 06:25:50;;;;;;;6.40;3.60;;;;;;;10.31;42.59;100541.10;107114;1258;61674;-38
2023/05/08 06:28:17;;;;;;;5.60;3.10;;;;;;;10.35;41.92;100540.23;107238;1260;61384;-37
2023/05/08 06:30:44;;;;;;;6.60;3.20;;;;;;;10.40;41.78;100539.59;107136;1257;75249;-37
2023/05/08 06:33:12;;;;;;;10.00;3.50;;;;;;;10.42;41.21;100538.60;107280;1261;68843;-38
2023/05/08 06:35:39;;;;;;;6.20;3.20;;;;;;;10.46;41.76;100543.84;107178;1258;73815;-38
2023/05/08 06:38:07;;;;;;;6.30;3.20;;;;;;;10.51;42.15;100544.41;107216;1257;60309;-38
2023/05/08 06:40:34;;;;;;;4.90;3.10;;;;;;;10.58;41.62;100547.27;107234;1258;61327;-38
2023/05/08 06:43:01;;;;;;;5.80;2.80;;;;;;;10.64;41.10;100546.00;106514;1260;1003093;-38
2023/05/08 06:45:29;;;;;;;7.10;3.00;;;;;;;10.68;41.63;100546.45;107287;1257;66744;-37
2023/05/08 06:47:56;;;;;;;10.80;3.60;;;;;;;10.75;41.41;100549.68;107239;1260;73522;-38
2023/05/08 06:50:23;;;;;;;5.10;3.40;;;;;;;10.82;41.73;100550.11;107248;1257;60425;-38
2023/05/08 06:52:50;;;;;;;7.90;2.80;;;;;;;10.94;41.62;100546.17;107175;1258;60651;-38
2023/05/08 06:55:18;;;;;;;7.60;3.20;;;;;;;11.07;41.51;100551.45;107101;1260;75022;-38
2023/05/08 06:57:45;;;;;;;5.50;3.10;;;;;;;11.17;40.82;100548.64;107171;1260;69070;-38
2023/05/08 07:00:12;;;;;;;5.40;3.00;;;;;;;11.24;40.91;100547.27;107194;1257;73868;-38
2023/05/08 07:02:40;;;;;;;10.10;3.50;;;;;;;11.30;40.10;100549.48;107269;1257;60394;-38
2023/05/08 07:05:08;;;;;;;8.20;3.30;;;;;;;11.28;38.65;100546.14;107265;1257;60317;-38
2023/05/08 07:07:35;;;;;;;8.90;3.40;;;;;;;11.26;39.37;100551.27;107249;1261;75121;-38
2023/05/08 07:10:03;;;;;;;9.10;3.50;;;;;;;11.26;39.50;100548.41;107217;1258;69192;-39
2023/05/08 07:12:32;;;;;;;5.70;3.40;;;;;;;11.32;38.71;100551.95;107215;1261;72596;-38
2023/05/08 07:15:00;;;;;;;6.50;3.30;;;;;;;11.38;39.15;100552.40;107142;1257;61462;-36
2023/05/08 07:17:47;;;;;;;6.60;3.50;;;;;;;11.47;38.50;100552.16;107224;1257;61423;-39
2023/05/08 07:20:14;;;;;;;6.70;3.40;;;;;;;11.55;38.86;100551.73;107247;1260;73584;-37
2023/05/08 07:22:41;;;;;;;5.80;3.30;;;;;;;11.65;38.32;100553.95;107269;1258;69004;-37
2023/05/08 07:25:09;;;;;;;6.60;3.30;;;;;;;11.72;37.74;100552.50;107290;1260;74026;-37
2023/05/08 07:27:37;;;;;;;6.80;3.30;;;;;;;11.83;37.48;100554.33;107282;1257;61395;-36
2023/05/08 07:30:05;;;;;;;8.10;3.10;;;;;;;11.91;37.82;100551.25;107260;1257;61401;-37
2023/05/08 07:32:33;;;;;;;8.10;3.30;;;;;;;11.99;37.01;100548.16;107249;1257;75056;-37
2023/05/08 07:35:01;;;;;;;4.90;3.20;;;;;;;11.98;35.85;100545.49;107279;1257;68100;-37
2023/05/08 07:37:28;;;;;;;5.60;3.20;;;;;;;12.00;36.44;100545.33;107264;1260;72657;-36
2023/05/08 07:39:56;;;;;;;8.20;3.30;;;;;;;12.09;36.36;100546.79;107229;1258;61241;-37
2023/05/08 07:42:23;;;;;;;6.50;3.40;;;;;;;12.19;35.18;100542.67;107276;1257;61299;-37
2023/05/08 07:44:51;;;;;;;5.60;3.10;;;;;;;12.31;34.39;100548.31;107211;1257;75062;-37
2023/05/08 07:47:21;;;;;;;4.80;3.40;;;;;;;12.38;34.22;100543.73;107242;1257;68899;-37
2023/05/08 07:49:48;;;;;;;5.50;3.30;;;;;;;12.47;34.94;100548.02;107231;1257;72970;-37
2023/05/08 07:52:15;;;;;;;7.90;3.50;;;;;;;12.57;34.48;100551.92;107255;1260;60374;-37
2023/05/08 07:54:42;;;;;;;8.20;3.80;;;;;;;12.61;33.71;100545.90;107215;1257;61415;-37
2023/05/08 07:57:10;;;;;;;8.60;3.00;;;;;;;12.65;34.63;100548.81;107270;1257;75024;-37
2023/05/08 07:59:37;;;;;;;5.20;3.30;;;;;;;12.71;33.35;100546.33;107254;1257;67880;-37
2023/05/08 08:02:06;;;;;;;6.00;3.40;;;;;;;12.76;32.99;100550.14;107224;1258;73838;-37
2023/05/08 08:04:33;;;;;;;7.10;3.90;;;;;;;12.85;33.39;100552.27;107254;1257;60497;-37
2023/05/08 08:07:00;;;;;;;5.00;3.40;;;;;;;13.00;33.03;100548.52;107247;1257;60300;-37
2023/05/08 08:09:28;;;;;;;6.30;3.50;;;;;;;13.18;33.41;100551.59;107237;1258;74961;-37
2023/05/08 08:11:55;;;;;;;10.20;2.90;;;;;;;13.34;32.83;100541.20;107262;1258;68784;-37
2023/05/08 08:14:22;;;;;;;4.60;3.00;;;;;;;13.44;32.25;100536.11;107237;1258;72771;-37
2023/05/08 08:16:49;;;;;;;6.50;3.40;;;;;;;13.46;31.69;100541.94;107166;1260;61613;-37
2023/05/08 08:19:16;;;;;;;6.80;3.40;;;;;;;13.42;31.59;100541.10;107121;1260;60435;-37
2023/05/08 08:21:43;;;;;;;7.40;3.20;;;;;;;13.27;31.59;100533.22;107172;1257;74931;-37
2023/05/08 08:24:11;;;;;;;4.10;3.40;;;;;;;13.30;31.98;100545.07;107214;1257;69118;-37
2023/05/08 08:26:38;;;;;;;4.10;3.00;;;;;;;13.37;31.75;100540.60;107182;1257;72446;-37
2023/05/08 08:29:05;;;;;;;4.90;2.80;;;;;;;13.48;31.14;100533.80;107142;1257;61313;-36
2023/05/08 08:31:32;;;;;;;7.60;2.60;;;;;;;13.58;30.85;100532.95;107119;1257;60221;-37
2023/05/08 08:34:00;;;;;;;5.00;3.00;;;;;;;13.67;30.22;100531.47;107114;1257;75063;-37
2023/05/08 08:36:27;;;;;;;5.70;3.20;;;;;;;13.76;30.26;100534.02;107208;1258;69096;-37
2023/05/08 08:38:54;;;;;;;4.20;3.30;;;;;;;13.81;29.97;100528.08;107247;1261;74203;-37
2023/05/08 08:41:22;;;;;;;4.90;3.10;;;;;;;13.83;30.10;100528.92;107217;1257;61602;-37
2023/05/08 08:43:49;;;;;;;7.40;3.00;;;;;;;13.89;30.42;100526.64;107244;1257;61606;-37
2023/05/08 08:46:16;;;;;;;5.10;3.00;;;;;;;14.00;32.56;100535.78;107199;1257;75113;-37
2023/05/08 08:48:45;;;;;;;4.80;3.70;;;;;;;14.09;32.75;100533.82;107251;1257;67365;-37
2023/05/08 08:51:27;;;;;;;5.60;3.00;;;;;;;14.11;33.94;100534.17;107204;1257;72413;-37
2023/05/08 08:54:16;;;;;;;4.90;3.10;;;;;;;14.12;33.05;100536.62;107187;1257;60912;-37
2023/05/08 08:56:43;;;;;;;4.70;2.90;;;;;;;14.14;33.54;100539.00;107295;1260;61486;-37
2023/05/08 08:59:12;;;;;;;7.70;3.30;;;;;;;14.15;33.52;100538.70;107197;1257;75047;-37
2023/05/08 09:01:39;;;;;;;6.60;3.40;;;;;;;14.09;33.13;100535.77;107295;1257;68828;-37
2023/05/08 09:04:07;;;;;;;6.10;3.30;;;;;;;13.95;32.57;100538.17;107008;1262;239601;-37
2023/05/08 09:08:20;;;;;;;7.30;3.40;;;;;;;13.75;33.24;100541.48;104167;1291;600413;-37
2023/05/08 09:10:47;;;;;;;4.80;2.80;;;;;;;13.65;32.74;100542.23;106731;1270;62325;-37
2023/05/08 09:13:14;;;;;;;3.90;2.70;;;;;;;13.55;33.19;100535.20;106733;1273;61152;-37
2023/05/08 09:15:46;;;;;;;5.90;3.30;;;;;;;13.50;33.73;100538.73;106769;1272;73878;-37
2023/05/08 09:18:13;;;;;;;6.00;3.40;;;;;;;13.49;33.50;100541.30;106687;1266;68129;-38
2023/05/08 09:20:40;;;;;;;5.60;3.30;;;;;;;13.46;33.63;100534.45;106703;1270;71719;-37
2023/05/08 09:23:08;;;;;;;4.70;3.40;;;;;;;13.46;33.91;100539.58;106568;1269;205878;-37
2023/05/08 09:25:47;;;;;;;4.70;3.20;;;;;;;13.47;33.96;100536.41;106775;1264;62447;-37
2023/05/08 09:28:16;;;;;;;4.70;2.50;;;;;;;13.53;33.21;100531.74;106847;1264;73280;-37
2023/05/08 09:30:58;;;;;;;4.80;3.00;;;;;;;13.61;33.12;100530.86;106907;1269;70533;-37
2023/05/08 09:33:26;;;;;;;5.00;2.80;;;;;;;13.73;32.50;100531.06;106850;1268;74346;-37
2023/05/08 09:35:54;;;;;;;5.40;3.10;;;;;;;13.82;32.86;100530.67;106902;1264;62734;-38
2023/05/08 09:38:38;;;;;;;6.30;2.80;;;;;;;13.87;32.15;100526.13;106855;1263;60793;-36
2023/05/08 09:41:07;;;;;;;7.10;3.00;;;;;;;13.84;31.74;100522.63;106885;1264;75458;-36
2023/05/08 09:43:34;;;;;;;6.10;3.10;;;;;;;13.83;32.12;100522.45;106888;1269;68308;-37
2023/05/08 09:46:22;;;;;;;7.30;3.30;;;;;;;13.80;31.26;100526.27;106858;1270;74579;-36
2023/05/08 09:48:50;;;;;;;5.50;3.00;;;;;;;13.79;32.38;100531.86;106835;1269;62319;-36
2023/05/08 09:51:17;;;;;;;5.50;3.10;;;;;;;13.80;32.05;100530.86;106855;1264;62686;-36
2023/05/08 09:53:45;;;;;;;4.60;2.80;;;;;;;13.80;32.54;100528.98;106805;1264;75243;-36
2023/05/08 09:56:12;;;;;;;5.70;2.80;;;;;;;13.81;32.69;100529.00;106833;1265;67988;-36
2023/05/08 09:58:40;;;;;;;4.30;3.10;;;;;;;13.80;32.21;100525.72;106812;1270;74282;-37
2023/05/08 10:01:26;;;;;;;6.90;2.60;;;;;;;13.76;32.15;100526.95;106851;1264;60465;-36
2023/05/08 10:03:53;;;;;;;3.70;2.60;;;;;;;13.73;32.23;100528.58;106762;1264;62327;-37
2023/05/08 10:06:20;;;;;;;5.90;2.80;;;;;;;13.66;32.37;100529.25;106759;1269;75168;-38
2023/05/08 10:08:48;;;;;;;11.70;3.10;;;;;;;13.60;32.20;100528.40;106735;1268;70095;-37
2023/05/08 10:11:16;;;;;;;9.80;2.80;;;;;;;13.52;31.74;100527.27;106740;1269;74953;-37
2023/05/08 10:13:44;;;;;;;4.60;2.50;;;;;;;13.42;32.04;100522.96;106870;1263;60045;-37
2023/05/08 10:16:15;;;;;;;4.30;3.20;;;;;;;13.34;31.87;100521.60;106749;1264;62014;-37
2023/05/08 10:18:48;;;;;;;4.70;3.10;;;;;;;13.31;32.35;100516.61;106833;1268;72109;-37
2023/05/08 10:21:16;;;;;;;3.10;2.60;;;;;;;13.28;32.37;100513.89;106875;1264;67785;-37
2023/05/08 10:23:43;;;;;;;5.20;2.80;;;;;;;13.28;32.75;100515.67;106843;1264;74097;-37
2023/05/08 10:26:18;;;;;;;7.10;2.50;;;;;;;13.30;33.03;100516.19;106671;1267;62345;-37
2023/05/08 10:28:45;;;;;;;4.60;2.60;;;;;;;13.34;32.75;100513.91;106821;1264;62381;-39
2023/05/08 10:31:13;;;;;;;5.90;2.70;;;;;;;13.35;32.44;100511.42;106798;1264;75647;-37
2023/05/08 10:33:40;;;;;;;6.00;2.80;;;;;;;13.37;32.53;100512.80;106841;1263;67622;-37
2023/05/08 10:36:08;;;;;;;7.90;2.90;;;;;;;13.39;32.34;100509.81;106755;1270;74663;-36
2023/05/08 10:38:39;;;;;;;20.70;3.30;;;;;;;13.42;32.85;100512.08;106893;1269;62653;-37
2023/05/08 10:41:06;;;;;;;6.70;2.50;;;;;;;13.46;32.49;100513.65;107244;1260;61681;-37
2023/05/08 10:43:33;;;;;;;5.30;2.70;;;;;;;13.52;32.41;100512.41;107017;1257;75310;-37
2023/05/08 10:46:04;;;;;;;6.50;3.00;;;;;;;13.58;32.44;100514.13;107280;1257;69658;-37
2023/05/08 10:48:34;;;;;;;8.70;2.60;;;;;;;13.60;32.52;100517.59;107145;1257;74236;-37
2023/05/08 10:51:08;;;;;;;5.40;2.50;;;;;;;13.60;32.13;100516.57;107243;1257;62455;-37
2023/05/08 10:53:44;;;;;;;6.50;2.90;;;;;;;13.59;31.84;100520.91;107121;1261;62712;-37
2023/05/08 10:56:12;;;;;;;8.80;3.00;;;;;;;13.53;31.89;100516.95;107149;1257;74984;-37
2023/05/08 10:58:39;;;;;;;8.20;3.20;;;;;;;13.50;32.30;100522.71;107256;1260;69188;-37
2023/05/08 11:01:06;;;;;;;5.60;2.30;;;;;;;13.48;31.89;100523.77;107270;1260;73995;-37
2023/05/08 11:03:40;;;;;;;6.60;2.90;;;;;;;13.47;32.34;100524.27;107275;1256;62644;-37
2023/05/08 11:06:07;;;;;;;5.20;3.20;;;;;;;13.48;32.24;100526.40;107302;1256;62678;-37
2023/05/08 11:08:46;;;;;;;4.50;2.40;;;;;;;13.48;32.28;100519.92;107165;1257;74385;-37
2023/05/08 11:11:24;;;;;;;9.10;2.60;;;;;;;13.59;32.58;100525.27;107238;1257;68737;-37
2023/05/08 11:13:56;;;;;;;3.00;2.30;;;;;;;13.61;32.10;100528.19;107250;1257;72124;-37
2023/05/08 11:16:52;;;;;;;3.90;2.20;;;;;;;13.54;31.45;100527.86;107249;1260;62752;-37
2023/05/08 11:19:20;;;;;;;3.90;2.40;;;;;;;13.47;32.03;100530.51;107290;1257;62613;-37
2023/05/08 11:22:13;;;;;;;3.70;2.50;;;;;;;13.45;31.81;100523.36;107327;1257;74024;-37
2023/05/08 11:24:59;;;;;;;8.30;2.90;;;;;;;13.44;32.59;100525.23;107294;1256;66979;-37
2023/05/08 11:27:41;;;;;;;8.60;2.60;;;;;;;13.43;32.33;100520.44;107278;1258;74827;-36
2023/05/08 11:30:24;;;;;;;3.80;2.40;;;;;;;13.46;32.35;100519.96;107258;1257;61458;-37
2023/05/08 11:33:04;;;;;;;5.60;2.50;;;;;;;13.49;32.61;100524.95;107239;1257;62664;-37
2023/05/08 11:35:47;;;;;;;;;;;;;;;13.52;32.54;100521.83;107230;1257;75391;-37